createdAt,value
2023-05-11T00:00:53.364Z,15.90
2023-05-11T00:02:58.385Z,15.90
2023-05-11T00:05:02.049Z,15.80
2023-05-11T00:07:06.208Z,15.70
2023-05-11T00:09:11.289Z,15.60
2023-05-11T00:11:14.813Z,15.60
2023-05-11T00:13:18.539Z,15.60
2023-05-11T00:15:22.123Z,15.50
2023-05-11T00:17:26.022Z,15.50
2023-05-11T00:19:31.724Z,15.50
2023-05-11T00:21:35.207Z,15.40
2023-05-11T00:23:38.639Z,15.40
2023-05-11T00:25:42.222Z,15.40
2023-05-11T00:27:46.363Z,15.40
2023-05-11T00:29:50.276Z,15.40
2023-05-11T00:31:53.866Z,15.40
2023-05-11T00:33:57.684Z,15.40
2023-05-11T00:36:02.975Z,15.50
2023-05-11T00:38:06.616Z,15.50
2023-05-11T00:40:10.701Z,15.50
2023-05-11T00:42:14.087Z,15.50
2023-05-11T00:44:17.676Z,15.50
2023-05-11T00:46:21.625Z,15.50
2023-05-11T00:48:25.189Z,15.40
2023-05-11T00:50:28.910Z,15.40
2023-05-11T00:52:33.929Z,15.40
2023-05-11T00:54:37.589Z,15.50
2023-05-11T00:56:41.445Z,15.50
2023-05-11T00:58:45.194Z,15.40
2023-05-11T01:00:48.947Z,15.50
2023-05-11T01:02:52.726Z,15.50
2023-05-11T01:04:56.528Z,15.40
2023-05-11T01:07:05.141Z,15.40
2023-05-11T01:09:16.074Z,15.40
2023-05-11T01:11:22.775Z,15.40
2023-05-11T01:13:28.288Z,15.40
2023-05-11T01:15:37.438Z,15.50
2023-05-11T01:17:47.376Z,15.40
2023-05-11T01:19:56.783Z,15.50
2023-05-11T01:22:00.258Z,15.50
2023-05-11T01:24:25.229Z,15.50
2023-05-11T01:26:47.520Z,15.50
2023-05-11T01:29:01.513Z,15.50
2023-05-11T01:31:08.720Z,15.50
2023-05-11T01:33:13.360Z,15.50
2023-05-11T01:35:20.300Z,15.50
2023-05-11T01:37:24.997Z,15.50
2023-05-11T01:39:31.821Z,15.50
2023-05-11T01:41:36.219Z,15.50
2023-05-11T01:43:39.548Z,15.50
2023-05-11T01:45:45.001Z,15.50
2023-05-11T01:47:51.438Z,15.40
2023-05-11T01:49:54.925Z,15.40
2023-05-11T01:51:58.450Z,15.40
2023-05-11T01:54:02.115Z,15.40
2023-05-11T01:56:06.085Z,15.40
2023-05-11T01:58:10.697Z,15.30
2023-05-11T02:00:14.692Z,15.40
2023-05-11T02:02:18.849Z,15.30
2023-05-11T02:04:23.695Z,15.30
2023-05-11T02:06:27.520Z,15.30
2023-05-11T02:08:31.413Z,15.20
2023-05-11T02:10:35.038Z,15.20
2023-05-11T02:12:39.023Z,15.20
2023-05-11T02:14:42.543Z,15.20
2023-05-11T02:16:46.564Z,15.20
2023-05-11T02:18:50.322Z,15.20
2023-05-11T02:20:55.188Z,15.10
2023-05-11T02:22:58.756Z,15.10
2023-05-11T02:25:02.257Z,15.00
2023-05-11T02:27:05.873Z,15.00
2023-05-11T02:29:09.280Z,15.00
2023-05-11T02:31:16.932Z,14.90
2023-05-11T02:33:22.491Z,14.90
2023-05-11T02:35:27.474Z,14.90
2023-05-11T02:37:32.617Z,14.90
2023-05-11T02:39:37.089Z,14.90
2023-05-11T02:41:42.544Z,14.90
2023-05-11T02:43:48.030Z,15.00
2023-05-11T02:45:52.813Z,15.00
2023-05-11T02:47:56.968Z,15.00
2023-05-11T02:50:02.839Z,15.10
2023-05-11T02:52:06.512Z,15.10
2023-05-11T02:54:11.907Z,15.10
2023-05-11T02:56:15.568Z,15.10
2023-05-11T02:58:19.709Z,15.20
2023-05-11T03:00:23.322Z,15.10
2023-05-11T03:02:27.361Z,15.10
2023-05-11T03:04:31.401Z,15.10
2023-05-11T03:06:36.396Z,15.10
2023-05-11T03:08:39.982Z,15.10
2023-05-11T03:10:45.253Z,15.10
2023-05-11T03:12:48.853Z,15.10
2023-05-11T03:14:52.495Z,15.10
2023-05-11T03:16:56.342Z,15.00
2023-05-11T03:19:00.202Z,14.90
2023-05-11T03:21:04.023Z,14.90
2023-05-11T03:23:07.845Z,14.90
2023-05-11T03:25:11.733Z,14.80
2023-05-11T03:27:16.982Z,14.80
2023-05-11T03:29:20.765Z,14.80
2023-05-11T03:31:24.560Z,14.80
2023-05-11T03:33:28.515Z,14.70
2023-05-11T03:35:32.841Z,14.80
2023-05-11T03:37:36.974Z,14.80
2023-05-11T03:39:40.741Z,14.80
2023-05-11T03:41:44.349Z,14.80
2023-05-11T03:43:51.428Z,14.80
2023-05-11T03:45:55.460Z,14.80
2023-05-11T03:47:59.581Z,14.80
2023-05-11T03:50:03.082Z,14.80
2023-05-11T03:52:08.316Z,14.80
2023-05-11T03:54:11.907Z,14.80
2023-05-11T03:56:36.797Z,14.90
2023-05-11T03:58:43.011Z,14.80
2023-05-11T04:00:47.833Z,14.90
2023-05-11T04:02:51.322Z,14.80
2023-05-11T04:04:54.730Z,14.80
2023-05-11T04:06:58.780Z,14.80
2023-05-11T04:09:02.327Z,14.80
2023-05-11T04:11:06.158Z,14.80
2023-05-11T04:13:09.854Z,14.70
2023-05-11T04:15:13.444Z,14.80
2023-05-11T04:17:18.714Z,14.80
2023-05-11T04:19:22.297Z,14.80
2023-05-11T04:21:28.214Z,14.70
2023-05-11T04:23:31.770Z,14.80
2023-05-11T04:25:35.832Z,14.90
2023-05-11T04:27:40.948Z,14.90
2023-05-11T04:29:45.164Z,14.90
2023-05-11T04:31:48.840Z,14.90
2023-05-11T04:33:54.274Z,14.90
2023-05-11T04:35:59.197Z,15.00
2023-05-11T04:38:02.787Z,15.00
2023-05-11T04:40:07.785Z,15.10
2023-05-11T04:42:11.351Z,15.10
2023-05-11T04:44:17.332Z,15.20
2023-05-11T04:46:22.255Z,15.30
2023-05-11T04:48:26.333Z,15.30
2023-05-11T04:50:31.548Z,15.30
2023-05-11T04:52:35.101Z,15.40
2023-05-11T04:54:39.399Z,15.50
2023-05-11T04:56:43.092Z,15.50
2023-05-11T04:58:46.561Z,15.60
2023-05-11T05:00:50.652Z,15.60
2023-05-11T05:02:54.316Z,15.70
2023-05-11T05:04:57.962Z,15.80
2023-05-11T05:07:04.491Z,15.90
2023-05-11T05:09:08.405Z,15.90
2023-05-11T05:11:12.258Z,16.00
2023-05-11T05:13:17.094Z,16.00
2023-05-11T05:15:21.573Z,16.10
2023-05-11T05:17:25.481Z,16.10
2023-05-11T05:19:29.753Z,16.10
2023-05-11T05:21:35.908Z,16.20
2023-05-11T05:23:41.052Z,16.20
2023-05-11T05:25:45.049Z,16.30
2023-05-11T05:27:48.972Z,16.40
2023-05-11T05:29:52.681Z,16.50
2023-05-11T05:31:56.426Z,16.60
2023-05-11T05:34:00.017Z,16.60
2023-05-11T05:36:04.090Z,16.70
2023-05-11T05:38:07.660Z,16.80
2023-05-11T05:40:13.154Z,16.90
2023-05-11T05:42:16.681Z,17.00
2023-05-11T05:44:20.441Z,17.10
2023-05-11T05:46:24.477Z,17.20
2023-05-11T05:48:28.211Z,17.20
2023-05-11T05:50:31.677Z,17.20
2023-05-11T05:52:35.258Z,17.30
2023-05-11T05:54:38.897Z,17.40
2023-05-11T05:56:45.032Z,17.50
2023-05-11T05:58:48.946Z,17.60
2023-05-11T06:00:52.558Z,17.60
2023-05-11T06:02:56.273Z,17.60
2023-05-11T06:04:59.924Z,17.70
2023-05-11T06:07:03.908Z,17.80
2023-05-11T06:09:07.324Z,18.00
2023-05-11T06:11:11.118Z,18.10
2023-05-11T06:13:16.283Z,18.20
2023-05-11T06:15:20.260Z,18.30
2023-05-11T06:17:24.133Z,18.40
2023-05-11T06:19:27.800Z,18.50
2023-05-11T06:21:31.986Z,18.60
2023-05-11T06:23:35.768Z,18.70
2023-05-11T06:25:39.448Z,18.90
2023-05-11T06:27:43.551Z,19.00
2023-05-11T06:29:48.554Z,19.10
2023-05-11T06:31:53.107Z,19.20
2023-05-11T06:33:58.992Z,19.30
2023-05-11T06:36:06.173Z,19.40
2023-05-11T06:38:10.073Z,19.50
2023-05-11T06:40:14.820Z,19.60
2023-05-11T06:42:18.690Z,19.60
2023-05-11T06:44:22.597Z,19.80
2023-05-11T06:46:27.795Z,19.80
2023-05-11T06:48:31.507Z,19.90
2023-05-11T06:50:35.377Z,19.80
2023-05-11T06:52:39.302Z,19.90
2023-05-11T06:54:42.915Z,19.90
2023-05-11T06:56:46.702Z,20.00
2023-05-11T06:58:50.326Z,20.10
2023-05-11T07:00:54.133Z,20.10
2023-05-11T07:02:59.274Z,20.10
2023-05-11T07:05:03.241Z,20.10
2023-05-11T07:07:07.686Z,20.00
2023-05-11T07:09:11.287Z,20.10
2023-05-11T07:11:15.764Z,20.20
2023-05-11T07:13:19.330Z,20.30
2023-05-11T07:15:22.844Z,20.40
2023-05-11T07:17:27.166Z,20.50
2023-05-11T07:19:32.293Z,20.60
2023-05-11T07:21:36.873Z,20.70
2023-05-11T07:23:41.370Z,20.90
2023-05-11T07:25:44.867Z,20.90
2023-05-11T07:27:48.562Z,21.00
2023-05-11T07:29:52.868Z,21.10
2023-05-11T07:31:56.608Z,21.30
2023-05-11T07:34:00.996Z,21.40
2023-05-11T07:36:06.813Z,21.50
2023-05-11T07:38:11.963Z,21.70
2023-05-11T07:40:15.785Z,21.80
2023-05-11T07:42:19.375Z,21.90
2023-05-11T07:44:23.028Z,22.10
2023-05-11T07:46:26.967Z,22.20
2023-05-11T07:49:13.728Z,22.30
2023-05-11T07:51:27.537Z,22.40
2023-05-11T07:53:32.658Z,22.40
2023-05-11T07:55:39.559Z,22.40
2023-05-11T07:57:43.922Z,22.30
2023-05-11T07:59:48.072Z,22.30
2023-05-11T08:01:52.695Z,22.30
2023-05-11T08:03:57.122Z,22.30
2023-05-11T08:06:01.221Z,22.30
2023-05-11T08:08:07.091Z,22.30
2023-05-11T08:10:11.882Z,22.30
2023-05-11T08:12:16.346Z,22.40
2023-05-11T08:14:21.488Z,22.40
2023-05-11T08:16:25.216Z,22.60
2023-05-11T08:18:28.811Z,22.80
2023-05-11T08:20:32.749Z,23.00
2023-05-11T08:22:36.195Z,23.10
2023-05-11T08:24:41.393Z,23.20
2023-05-11T08:26:45.361Z,23.30
2023-05-11T08:28:49.285Z,23.30
2023-05-11T08:30:56.883Z,23.40
2023-05-11T08:33:00.721Z,23.50
2023-05-11T08:35:05.121Z,23.50
2023-05-11T08:37:09.534Z,23.50
2023-05-11T08:39:13.495Z,23.50
2023-05-11T08:41:18.833Z,23.50
2023-05-11T08:43:22.540Z,23.60
2023-05-11T08:45:26.158Z,23.60
2023-05-11T08:47:29.998Z,23.70
2023-05-11T08:49:33.705Z,23.80
2023-05-11T08:51:37.944Z,23.90
2023-05-11T08:53:41.902Z,23.90
2023-05-11T08:55:45.495Z,23.80
2023-05-11T08:57:51.226Z,23.80
2023-05-11T08:59:55.246Z,23.90
2023-05-11T09:01:59.379Z,24.00
2023-05-11T09:04:03.842Z,24.00
2023-05-11T09:06:08.768Z,24.10
2023-05-11T09:08:12.321Z,24.20
2023-05-11T09:10:16.427Z,24.20
2023-05-11T09:12:20.424Z,24.20
2023-05-11T09:14:27.674Z,24.10
2023-05-11T09:16:37.348Z,24.10
2023-05-11T09:18:49.259Z,24.10
2023-05-11T09:20:52.952Z,24.30
2023-05-11T09:22:56.965Z,24.50
2023-05-11T09:25:00.771Z,24.50
2023-05-11T09:27:10.330Z,24.70
2023-05-11T09:29:13.805Z,24.80
2023-05-11T09:31:43.262Z,24.90
2023-05-11T09:33:47.326Z,24.90
2023-05-11T09:35:51.178Z,25.00
2023-05-11T09:38:04.971Z,25.10
2023-05-11T09:40:26.342Z,25.20
2023-05-11T09:42:31.214Z,25.20
2023-05-11T09:44:35.302Z,25.00
2023-05-11T09:46:39.622Z,24.80
2023-05-11T09:48:44.750Z,24.80
2023-05-11T09:50:48.812Z,24.70
2023-05-11T09:52:53.122Z,24.60
2023-05-11T09:54:56.912Z,24.70
2023-05-11T09:57:02.112Z,24.90
2023-05-11T09:59:06.068Z,25.00
2023-05-11T10:01:10.484Z,25.10
2023-05-11T10:03:14.100Z,25.00
2023-05-11T10:05:19.339Z,25.00
2023-05-11T10:07:29.729Z,24.90
2023-05-11T10:09:33.334Z,24.90
2023-05-11T10:11:37.766Z,24.90
2023-05-11T10:13:41.561Z,25.00
2023-05-11T10:15:45.228Z,25.00
2023-05-11T10:17:49.149Z,25.00
2023-05-11T10:19:53.349Z,25.00
2023-05-11T10:21:58.583Z,25.00
2023-05-11T10:24:02.442Z,24.90
2023-05-11T10:26:06.115Z,24.80
2023-05-11T10:28:09.997Z,24.80
2023-05-11T10:30:14.662Z,24.60
2023-05-11T10:32:18.816Z,24.50
2023-05-11T10:34:23.404Z,24.40
2023-05-11T10:36:28.453Z,24.40
2023-05-11T10:38:33.510Z,24.40
2023-05-11T10:40:38.689Z,24.40
2023-05-11T10:43:13.129Z,24.30
2023-05-11T10:45:23.340Z,24.10
2023-05-11T10:47:55.585Z,24.10
2023-05-11T10:50:18.726Z,24.20
2023-05-11T10:52:33.176Z,24.40
2023-05-11T10:55:01.317Z,24.50
2023-05-11T10:57:27.509Z,24.60
2023-05-11T10:59:52.994Z,24.70
2023-05-11T11:01:59.226Z,24.60
2023-05-11T11:04:05.743Z,24.60
2023-05-11T11:06:22.925Z,24.60
2023-05-11T11:08:26.618Z,24.70
2023-05-11T11:10:35.861Z,24.80
2023-05-11T11:12:39.608Z,25.00
2023-05-11T11:14:55.991Z,25.00
2023-05-11T11:17:24.569Z,25.10
2023-05-11T11:19:40.511Z,25.30
2023-05-11T11:21:45.666Z,25.40
2023-05-11T11:23:50.511Z,25.30
2023-05-11T11:25:55.518Z,25.30
2023-05-11T11:28:00.237Z,25.30
2023-05-11T11:30:28.980Z,25.20
2023-05-11T11:32:32.669Z,25.20
2023-05-11T11:34:39.563Z,25.10
2023-05-11T11:37:10.129Z,25.00
2023-05-11T11:39:14.118Z,25.00
2023-05-11T11:41:31.022Z,24.90
2023-05-11T11:43:46.015Z,24.80
2023-05-11T11:45:53.937Z,24.90
2023-05-11T11:48:14.549Z,24.90
2023-05-11T11:50:20.222Z,24.90
2023-05-11T11:52:44.653Z,24.80
2023-05-11T11:54:48.246Z,24.60
2023-05-11T11:56:53.299Z,24.10
2023-05-11T11:59:00.580Z,23.60
2023-05-11T12:01:05.483Z,22.90
2023-05-11T12:03:09.332Z,22.30
2023-05-11T12:05:14.613Z,21.70
2023-05-11T12:07:18.518Z,21.10
2023-05-11T12:09:22.278Z,20.50
2023-05-11T12:11:26.525Z,20.20
2023-05-11T12:13:31.699Z,19.80
2023-05-11T12:15:35.293Z,19.60
2023-05-11T12:17:40.920Z,19.40
2023-05-11T12:19:48.542Z,19.20
2023-05-11T12:21:52.302Z,19.00
2023-05-11T12:23:56.408Z,18.70
2023-05-11T12:26:03.639Z,18.50
2023-05-11T12:28:07.297Z,18.40
2023-05-11T12:30:20.466Z,18.30
2023-05-11T12:32:30.367Z,18.30
2023-05-11T12:34:34.009Z,18.20
2023-05-11T12:36:37.881Z,18.20
2023-05-11T12:38:45.537Z,18.30
2023-05-11T12:40:50.293Z,18.40
2023-05-11T12:42:54.016Z,18.50
2023-05-11T12:44:57.496Z,18.70
2023-05-11T12:47:02.931Z,18.90
2023-05-11T12:49:06.891Z,19.00
2023-05-11T12:51:10.653Z,19.10
2023-05-11T12:53:15.377Z,19.10
2023-05-11T12:55:29.093Z,19.20
2023-05-11T12:57:33.783Z,19.30
2023-05-11T12:59:38.754Z,19.40
2023-05-11T13:01:42.501Z,19.70
2023-05-11T13:03:48.359Z,19.90
2023-05-11T13:05:52.558Z,20.00
2023-05-11T13:08:00.441Z,20.20
2023-05-11T13:10:04.403Z,20.30
2023-05-11T13:12:13.321Z,20.40
2023-05-11T13:14:17.764Z,20.40
2023-05-11T13:16:28.261Z,20.50
2023-05-11T13:18:32.091Z,20.60
2023-05-11T13:20:38.456Z,20.60
2023-05-11T13:22:42.163Z,20.80
2023-05-11T13:24:45.986Z,20.80
2023-05-11T13:26:50.094Z,20.90
2023-05-11T13:29:08.823Z,21.00
2023-05-11T13:31:13.500Z,21.00
2023-05-11T13:33:17.374Z,21.00
2023-05-11T13:35:21.004Z,21.00
2023-05-11T13:37:27.080Z,21.00
2023-05-11T13:39:30.849Z,21.00
2023-05-11T13:41:34.901Z,21.00
2023-05-11T13:43:38.790Z,21.00
2023-05-11T13:45:42.755Z,21.00
2023-05-11T13:47:46.824Z,21.00
2023-05-11T13:49:50.712Z,21.10
2023-05-11T13:51:55.750Z,21.10
2023-05-11T13:54:02.789Z,21.20
2023-05-11T13:56:07.124Z,21.30
2023-05-11T13:58:11.123Z,21.40
2023-05-11T14:00:16.662Z,21.40
2023-05-11T14:02:20.594Z,21.30
2023-05-11T14:04:25.709Z,21.20
2023-05-11T14:06:29.561Z,21.00
2023-05-11T14:08:33.226Z,20.90
2023-05-11T14:10:38.666Z,20.90
2023-05-11T14:12:42.954Z,20.90
2023-05-11T14:14:48.792Z,20.90
2023-05-11T14:16:52.441Z,21.00
2023-05-11T14:18:56.362Z,21.10
2023-05-11T14:21:01.061Z,21.20
2023-05-11T14:23:04.623Z,21.30
2023-05-11T14:25:09.596Z,21.40
2023-05-11T14:27:15.046Z,21.40
2023-05-11T14:29:18.774Z,21.50
2023-05-11T14:31:22.825Z,21.50
2023-05-11T14:33:26.734Z,21.50
2023-05-11T14:35:30.216Z,21.50
2023-05-11T14:37:33.818Z,21.50
2023-05-11T14:39:38.789Z,21.50
2023-05-11T14:41:42.337Z,21.50
2023-05-11T14:43:49.879Z,21.40
2023-05-11T14:45:53.676Z,21.30
2023-05-11T14:47:58.403Z,21.30
2023-05-11T14:50:01.802Z,21.20
2023-05-11T14:52:05.894Z,21.10
2023-05-11T14:54:09.558Z,21.10
2023-05-11T14:56:14.917Z,21.00
2023-05-11T14:58:18.865Z,20.90
2023-05-11T15:00:28.104Z,20.80
2023-05-11T15:02:33.968Z,20.60
2023-05-11T15:04:37.878Z,20.40
2023-05-11T15:06:44.449Z,20.40
2023-05-11T15:08:48.367Z,20.30
2023-05-11T15:10:54.264Z,20.30
2023-05-11T15:12:58.117Z,20.30
2023-05-11T15:15:01.844Z,20.20
2023-05-11T15:17:07.618Z,20.20
2023-05-11T15:19:13.692Z,20.20
2023-05-11T15:21:17.747Z,20.30
2023-05-11T15:23:21.655Z,20.30
2023-05-11T15:25:35.509Z,20.40
2023-05-11T15:27:51.494Z,20.30
2023-05-11T15:29:57.693Z,20.30
2023-05-11T15:32:02.430Z,20.40
2023-05-11T15:34:12.879Z,20.40
2023-05-11T15:36:16.852Z,20.40
2023-05-11T15:38:20.955Z,20.40
2023-05-11T15:40:24.775Z,20.60
2023-05-11T15:42:28.523Z,20.70
2023-05-11T15:44:33.542Z,20.80
2023-05-11T15:46:37.548Z,20.90
2023-05-11T15:48:41.158Z,21.00
2023-05-11T15:50:46.367Z,21.10
2023-05-11T15:52:50.159Z,21.10
2023-05-11T15:54:53.682Z,21.20
2023-05-11T15:56:57.328Z,21.20
2023-05-11T15:59:01.240Z,21.20
2023-05-11T16:01:05.216Z,21.20
2023-05-11T16:03:09.224Z,21.10
2023-05-11T16:05:13.319Z,20.80
2023-05-11T16:07:18.674Z,20.80
2023-05-11T16:09:22.858Z,20.60
2023-05-11T16:11:26.518Z,20.30
2023-05-11T16:13:30.303Z,20.10
2023-05-11T16:15:34.124Z,19.90
2023-05-11T16:17:38.368Z,19.70
2023-05-11T16:19:42.311Z,19.70
2023-05-11T16:21:46.105Z,19.70
2023-05-11T16:23:51.362Z,19.70
2023-05-11T16:25:55.138Z,19.70
2023-05-11T16:27:59.023Z,19.80
2023-05-11T16:30:14.183Z,20.00
2023-05-11T16:32:26.516Z,20.10
2023-05-11T16:34:30.241Z,20.20
2023-05-11T16:36:34.171Z,20.20
2023-05-11T16:38:37.848Z,20.20
2023-05-11T16:40:43.737Z,20.20
2023-05-11T16:42:48.573Z,20.20
2023-05-11T16:44:52.272Z,20.10
2023-05-11T16:46:56.505Z,20.10
2023-05-11T16:49:00.299Z,20.10
2023-05-11T16:51:05.055Z,20.10
2023-05-11T16:53:09.099Z,20.10
2023-05-11T16:55:12.795Z,20.10
2023-05-11T16:57:17.802Z,20.00
2023-05-11T16:59:21.539Z,20.00
2023-05-11T17:01:25.529Z,19.90
2023-05-11T17:03:29.286Z,19.90
2023-05-11T17:05:33.107Z,19.90
2023-05-11T17:07:36.804Z,19.90
2023-05-11T17:09:40.416Z,19.90
2023-05-11T17:11:44.448Z,19.90
2023-05-11T17:13:49.523Z,19.80
2023-05-11T17:15:56.502Z,19.80
2023-05-11T17:18:00.281Z,19.70
2023-05-11T17:20:06.486Z,19.70
2023-05-11T17:22:10.303Z,19.70
2023-05-11T17:24:13.798Z,19.70
2023-05-11T17:26:17.541Z,19.70
2023-05-11T17:28:21.472Z,19.70
2023-05-11T17:30:33.355Z,19.60
2023-05-11T17:32:44.371Z,19.60
2023-05-11T17:34:48.353Z,19.50
2023-05-11T17:36:52.133Z,19.30
2023-05-11T17:38:56.811Z,19.20
2023-05-11T17:41:01.118Z,19.10
2023-05-11T17:43:05.480Z,19.00
2023-05-11T17:45:10.798Z,18.90
2023-05-11T17:47:15.852Z,18.80
2023-05-11T17:49:19.963Z,18.70
2023-05-11T17:51:23.580Z,18.60
2023-05-11T17:53:27.509Z,18.60
2023-05-11T17:55:31.451Z,18.60
2023-05-11T17:57:35.295Z,18.60
2023-05-11T17:59:39.186Z,18.60
2023-05-11T18:01:44.600Z,18.60
2023-05-11T18:03:49.847Z,18.50
2023-05-11T18:05:53.682Z,18.50
2023-05-11T18:07:57.386Z,18.40
2023-05-11T18:10:03.992Z,18.40
2023-05-11T18:12:09.423Z,18.40
2023-05-11T18:14:13.561Z,18.50
2023-05-11T18:16:18.272Z,18.50
2023-05-11T18:18:23.122Z,18.50
2023-05-11T18:20:28.415Z,18.50
2023-05-11T18:22:32.106Z,18.40
2023-05-11T18:24:36.141Z,18.40
2023-05-11T18:26:39.722Z,18.40
2023-05-11T18:28:43.535Z,18.30
2023-05-11T18:30:47.494Z,18.30
2023-05-11T18:32:51.349Z,18.20
2023-05-11T18:34:54.909Z,18.20
2023-05-11T18:37:00.271Z,18.10
2023-05-11T18:39:05.012Z,18.00
2023-05-11T18:41:09.613Z,18.00
2023-05-11T18:43:13.929Z,17.90
2023-05-11T18:45:17.741Z,17.70
2023-05-11T18:47:22.005Z,17.60
2023-05-11T18:49:25.945Z,17.50
2023-05-11T18:51:30.294Z,17.40
2023-05-11T18:53:35.538Z,17.40
2023-05-11T18:55:52.113Z,17.30
2023-05-11T18:57:58.181Z,17.30
2023-05-11T19:00:01.875Z,17.30
2023-05-11T19:02:05.906Z,17.30
2023-05-11T19:04:09.795Z,17.20
2023-05-11T19:06:13.311Z,17.20
2023-05-11T19:08:18.715Z,17.20
2023-05-11T19:10:24.743Z,17.20
2023-05-11T19:12:28.378Z,17.20
2023-05-11T19:14:34.945Z,17.20
2023-05-11T19:16:38.685Z,17.20
2023-05-11T19:18:42.444Z,17.20
2023-05-11T19:20:46.066Z,17.20
2023-05-11T19:22:51.067Z,17.20
2023-05-11T19:24:54.502Z,17.20
2023-05-11T19:27:06.489Z,17.20
2023-05-11T19:29:12.446Z,17.20
2023-05-11T19:31:16.106Z,17.20
2023-05-11T19:33:19.818Z,17.30
2023-05-11T19:35:23.655Z,17.20
2023-05-11T19:37:27.110Z,17.20
2023-05-11T19:39:32.179Z,17.20
2023-05-11T19:41:35.832Z,17.20
2023-05-11T19:43:40.940Z,17.20
2023-05-11T19:45:45.544Z,17.20
2023-05-11T19:47:49.352Z,17.20
2023-05-11T19:49:52.887Z,17.10
2023-05-11T19:51:56.844Z,17.10
2023-05-11T19:54:00.646Z,17.10
2023-05-11T19:56:04.044Z,17.10
2023-05-11T19:58:08.810Z,17.10
2023-05-11T20:00:14.600Z,17.10
2023-05-11T20:02:18.294Z,17.10
2023-05-11T20:04:21.762Z,17.10
2023-05-11T20:06:25.662Z,17.20
2023-05-11T20:08:30.767Z,17.20
2023-05-11T20:10:34.944Z,17.20
2023-05-11T20:12:40.167Z,17.20
2023-05-11T20:14:43.998Z,17.20
2023-05-11T20:16:48.861Z,17.20
2023-05-11T20:18:52.896Z,17.20
2023-05-11T20:20:56.283Z,17.20
2023-05-11T20:22:59.849Z,17.10
2023-05-11T20:25:03.917Z,17.10
2023-05-11T20:27:09.850Z,17.20
2023-05-11T20:29:14.279Z,17.20
2023-05-11T20:31:18.111Z,17.30
2023-05-11T20:35:29.355Z,17.30
2023-05-11T20:37:33.239Z,17.30
2023-05-11T20:39:36.700Z,17.30
2023-05-11T20:41:40.244Z,17.30
2023-05-11T20:43:44.620Z,17.30
2023-05-11T20:47:52.474Z,17.30
2023-05-11T20:49:57.458Z,17.30
2023-05-11T20:52:01.177Z,17.30
2023-05-11T20:54:05.130Z,17.30
2023-05-11T20:56:10.340Z,17.30
2023-05-11T20:58:14.057Z,17.20
2023-05-11T21:00:20.762Z,17.20
2023-05-11T21:02:24.811Z,17.20
2023-05-11T21:04:30.004Z,17.20
2023-05-11T21:06:35.024Z,17.30
2023-05-11T21:08:38.541Z,17.20
2023-05-11T21:10:42.059Z,17.20
2023-05-11T21:12:45.562Z,17.20
2023-05-11T21:14:49.165Z,17.20
2023-05-11T21:16:52.651Z,17.20
2023-05-11T21:18:56.130Z,17.10
2023-05-11T21:20:59.877Z,17.10
2023-05-11T21:23:05.044Z,17.00
2023-05-11T21:25:08.839Z,17.00
2023-05-11T21:27:12.805Z,16.90
2023-05-11T21:29:16.426Z,16.90
2023-05-11T21:31:20.951Z,16.80
2023-05-11T22:41:01.437Z,16.50
2023-05-11T22:43:05.038Z,16.50
2023-05-11T22:45:09.912Z,16.50
2023-05-11T22:47:18.065Z,16.50
2023-05-11T22:49:21.617Z,16.50
2023-05-11T22:51:25.210Z,16.60
2023-05-11T22:53:29.845Z,16.60
2023-05-11T22:55:33.288Z,16.70
2023-05-11T22:57:38.283Z,16.70
2023-05-11T22:59:42.033Z,16.80
2023-05-11T23:09:42.885Z,16.90
2023-05-11T23:11:46.706Z,16.90
2023-05-11T23:13:51.732Z,17.00
2023-05-11T23:15:57.505Z,17.00
2023-05-11T23:18:01.328Z,17.00
2023-05-11T23:20:05.350Z,17.00
2023-05-11T23:22:09.084Z,16.90
2023-05-11T23:24:13.078Z,16.90
2023-05-11T23:26:16.525Z,16.80
